Terminal Aerodrome Forecast
Issued by NWS Jackson, MS

Home | Current Version | Previous Version | Text Only | Print | Product List | Glossary On
Versions: 1 2 3 4 5 6 7 8 9 10 11 12 13 14 15 16 17
607
FTUS44 KJAN 220531
TAFGWO
TAF
KGWO 220531Z 2206/2306 10008KT P6SM VCSH OVC015
     FM220800 15006KT 3SM SHRA VCTS OVC015CB
     FM221400 20007KT 4SM SHRA BR OVC008
     FM230100 16006KT P6SM OVC015=

USA.gov is the U.S. government's official web portal to all federal, state and local government web resources and services.